Time;durP1;ratioP1;P1;durP2;ratioP2;P2;SDS_P1;SDS_P2;PMS_P1;PMS_P2;Temp;Humidity;BMP_temperature;BMP_pressure;BME280_temperature;BME280_humidity;BME280_pressure;Samples;Min_cycle;Max_cycle;Signal;HPM_P1;HPM_P2
2021/11/17 02:27:03;;;;;;;33.53;14.37;;;4.50;1.00;;;;;;5032144;28;20231;-58
2021/11/17 02:29:44;;;;;;;35.47;14.07;;;4.60;1.00;;;;;;5032414;28;20214;-60
2021/11/17 02:32:26;;;;;;;30.67;13.53;;;4.50;1.00;;;;;;5032378;28;20215;-60
2021/11/17 02:35:20;;;;;;;31.20;14.07;;;4.50;1.00;;;;;;5031846;28;20298;-58
2021/11/17 02:38:01;;;;;;;34.83;13.57;;;4.50;1.00;;;;;;5032213;28;20227;-57
2021/11/17 02:40:48;;;;;;;33.67;13.23;;;4.50;1.00;;;;;;5032178;28;20268;-59
2021/11/17 02:43:31;;;;;;;35.90;16.13;;;4.50;1.00;;;;;;5028519;28;20208;-60
2021/11/17 02:46:17;;;;;;;37.13;14.53;;;4.50;1.00;;;;;;5031714;28;20304;-59
2021/11/17 02:49:00;;;;;;;37.93;14.90;;;4.50;1.00;;;;;;5031547;28;20605;-59
2021/11/17 02:51:48;;;;;;;36.93;13.83;;;4.50;1.00;;;;;;5031340;28;20213;-57
2021/11/17 02:54:38;;;;;;;34.90;14.33;;;4.50;1.00;;;;;;5031515;28;20258;-59
2021/11/17 02:57:32;;;;;;;33.90;13.53;;;4.60;1.00;;;;;;5031285;28;20285;-60
2021/11/17 03:00:21;;;;;;;35.80;14.53;;;4.60;1.00;;;;;;5030844;28;20213;-59
2021/11/17 03:03:09;;;;;;;32.73;13.90;;;4.60;1.00;;;;;;5031319;28;20204;-59
2021/11/17 03:05:57;;;;;;;34.70;14.13;;;4.60;1.00;;;;;;5030989;28;20229;-58
2021/11/17 03:08:41;;;;;;;29.93;13.40;;;4.50;1.00;;;;;;5034711;28;20260;-59
2021/11/17 03:11:25;;;;;;;31.23;13.93;;;4.50;1.00;;;;;;5035016;28;20210;-58
2021/11/17 03:14:15;;;;;;;31.73;13.03;;;4.50;1.00;;;;;;5034779;28;20258;-59
2021/11/17 03:16:56;;;;;;;28.17;12.73;;;4.40;1.00;;;;;;5034220;28;20212;-58
2021/11/17 03:19:38;;;;;;;33.67;13.30;;;4.40;1.00;;;;;;5034804;28;20607;-59
2021/11/17 03:22:21;;;;;;;28.60;12.97;;;4.40;1.00;;;;;;5034778;28;20209;-59
2021/11/17 03:25:10;;;;;;;34.63;13.73;;;4.40;1.00;;;;;;5034150;28;20231;-58
2021/11/17 03:27:56;;;;;;;29.77;13.13;;;4.40;1.00;;;;;;5034520;28;20276;-60
2021/11/17 03:30:52;;;;;;;31.27;12.97;;;4.50;1.00;;;;;;5034487;28;20628;-59
2021/11/17 03:33:33;;;;;;;28.43;13.07;;;4.40;1.00;;;;;;5034273;28;20634;-60
2021/11/17 03:36:43;;;;;;;29.10;12.23;;;4.50;1.00;;;;;;5034286;28;20298;-58
2021/11/17 03:39:38;;;;;;;30.43;12.40;;;4.60;1.00;;;;;;4987363;28;20562;-60
2021/11/17 03:42:25;;;;;;;24.97;12.07;;;4.60;1.00;;;;;;5034390;28;20215;-60
2021/11/17 03:45:13;;;;;;;30.57;13.60;;;4.70;1.00;;;;;;5033960;28;20232;-59
2021/11/17 03:47:58;;;;;;;31.67;13.63;;;4.60;1.00;;;;;;5034176;28;20207;-59
2021/11/17 03:50:44;;;;;;;33.30;13.23;;;4.60;1.00;;;;;;5034208;28;20732;-58
2021/11/17 03:53:30;;;;;;;34.10;13.93;;;4.60;1.00;;;;;;5034084;28;20226;-59
2021/11/17 03:56:19;;;;;;;32.30;14.47;;;4.60;1.00;;;;;;5033921;28;20212;-58
2021/11/17 03:58:59;;;;;;;39.83;15.93;;;4.60;1.00;;;;;;5034067;28;20228;-59
2021/11/17 04:01:40;;;;;;;39.97;16.43;;;4.50;1.00;;;;;;5034239;28;20277;-60
2021/11/17 04:04:26;;;;;;;33.83;15.23;;;4.50;1.00;;;;;;5033810;28;20637;-59
2021/11/17 04:07:06;;;;;;;36.43;15.97;;;4.60;1.00;;;;;;5033543;28;20298;-59
2021/11/17 04:09:45;;;;;;;39.83;17.07;;;4.60;1.00;;;;;;5033718;28;20762;-59
2021/11/17 04:12:24;;;;;;;39.93;16.80;;;4.50;1.00;;;;;;5033820;28;20621;-59
2021/11/17 04:15:02;;;;;;;42.17;16.87;;;4.60;1.00;;;;;;5033304;28;20228;-59
2021/11/17 04:17:45;;;;;;;40.40;17.50;;;4.60;1.00;;;;;;5033483;28;20229;-60
2021/11/17 04:20:24;;;;;;;50.03;17.63;;;4.60;1.00;;;;;;5033664;28;20209;-59
2021/11/17 04:23:04;;;;;;;39.53;16.63;;;4.70;1.00;;;;;;5033433;28;20210;-60
2021/11/17 04:25:47;;;;;;;40.13;17.30;;;4.60;1.00;;;;;;5032953;28;20598;-60
2021/11/17 04:28:31;;;;;;;48.87;19.40;;;4.60;1.00;;;;;;5033720;28;20222;-59
2021/11/17 04:31:23;;;;;;;43.13;17.37;;;4.60;1.00;;;;;;5033497;28;20210;-57
2021/11/17 04:34:12;;;;;;;49.80;18.43;;;4.60;1.00;;;;;;5032779;28;20228;-59
2021/11/17 04:37:18;;;;;;;49.77;18.63;;;4.60;1.00;;;;;;5033211;28;20366;-58
2021/11/17 04:40:21;;;;;;;53.20;19.43;;;4.50;1.00;;;;;;4952727;29;20209;-59
2021/11/17 04:43:12;;;;;;;52.07;19.67;;;4.50;1.00;;;;;;4952863;29;20350;-56
2021/11/17 04:45:51;;;;;;;61.60;20.90;;;4.50;1.00;;;;;;5020685;28;20743;-58
2021/11/17 04:48:31;;;;;;;48.57;19.43;;;4.40;1.00;;;;;;5032982;28;20210;-59
2021/11/17 04:51:22;;;;;;;46.13;19.23;;;4.50;1.00;;;;;;5033053;28;20216;-57
2021/11/17 04:54:08;;;;;;;49.37;21.00;;;4.50;1.00;;;;;;5032873;28;20232;-59
2021/11/17 04:57:06;;;;;;;42.80;17.93;;;4.70;1.00;;;;;;5032355;28;20212;-59
2021/11/17 04:59:58;;;;;;;45.93;18.50;;;4.80;1.00;;;;;;5032006;28;20295;-59
2021/11/17 05:02:43;;;;;;;43.13;18.30;;;4.70;1.00;;;;;;5032534;28;20694;-59
2021/11/17 05:05:32;;;;;;;46.60;19.23;;;4.70;1.00;;;;;;5032290;28;20776;-60
2021/11/17 05:08:07;;;;;;;46.13;19.03;;;4.70;1.00;;;;;;5032810;28;20207;-58
2021/11/17 05:10:46;;;;;;;46.53;17.47;;;4.80;1.00;;;;;;5032801;28;20211;-57
2021/11/17 05:13:22;;;;;;;40.60;17.37;;;4.80;1.00;;;;;;5032595;28;20220;-60
2021/11/17 05:16:02;;;;;;;42.27;17.70;;;4.80;1.00;;;;;;5032663;28;20261;-58
2021/11/17 05:18:36;;;;;;;47.23;18.80;;;4.80;1.00;;;;;;5032573;28;20232;-59
2021/11/17 05:21:18;;;;;;;49.27;19.27;;;4.80;1.00;;;;;;5032548;28;20253;-53
2021/11/17 05:23:59;;;;;;;48.83;19.27;;;4.70;1.00;;;;;;5032015;28;20274;-56
2021/11/17 05:26:39;;;;;;;53.30;19.63;;;4.70;1.00;;;;;;5032121;28;20220;-57
2021/11/17 05:29:21;;;;;;;48.30;18.83;;;4.70;1.00;;;;;;5048213;28;20203;-53
2021/11/17 05:32:01;;;;;;;54.67;19.50;;;4.70;11.80;;;;;;5049282;28;20220;-60
2021/11/17 05:34:47;;;;;;;55.60;19.37;;;4.70;15.20;;;;;;5036383;28;20235;-54
2021/11/17 05:37:24;;;;;;;52.27;20.20;;;4.70;24.20;;;;;;5051518;28;20814;-58
2021/11/17 05:40:05;;;;;;;55.80;20.33;;;4.70;31.90;;;;;;5051930;28;20624;-59
2021/11/17 05:42:44;;;;;;;51.97;19.10;;;4.70;40.80;;;;;;5051739;28;20642;-59
2021/11/17 05:45:28;;;;;;;58.53;19.47;;;4.70;52.40;;;;;;5037742;28;20230;-59
2021/11/17 05:48:06;;;;;;;62.63;20.23;;;4.70;68.10;;;;;;5032021;28;20210;-59
2021/11/17 05:51:05;;;;;;;55.80;20.50;;;4.70;77.00;;;;;;5031887;28;20667;-60
2021/11/17 05:53:48;;;;;;;56.23;19.60;;;4.70;81.60;;;;;;4995938;28;20202;-56
2021/11/17 05:56:32;;;;;;;57.47;18.87;;;4.70;94.70;;;;;;5031465;28;20559;-56
2021/11/17 05:59:17;;;;;;;55.70;20.20;;;4.80;94.50;;;;;;5031787;28;20581;-57
2021/11/17 06:01:56;;;;;;;49.93;18.73;;;4.80;93.80;;;;;;5031880;28;20217;-58
2021/11/17 06:04:22;;;;;;;50.63;18.07;;;4.90;93.20;;;;;;5031456;28;20588;-60
2021/11/17 06:06:49;;;;;;;57.20;20.63;;;4.80;86.50;;;;;;5031591;28;20259;-58
2021/11/17 06:09:15;;;;;;;50.90;19.40;;;4.80;93.40;;;;;;5031487;28;20208;-55
2021/11/17 06:11:46;;;;;;;52.37;19.57;;;4.90;95.70;;;;;;5031461;28;20235;-54
2021/11/17 06:14:16;;;;;;;52.70;20.03;;;4.90;96.00;;;;;;5031557;28;20229;-57
2021/11/17 06:16:46;;;;;;;53.03;20.53;;;4.80;90.10;;;;;;5051296;28;20734;-54
2021/11/17 06:19:14;;;;;;;52.77;20.53;;;4.80;86.30;;;;;;5052299;28;20223;-59
2021/11/17 06:21:42;;;;;;;57.97;20.00;;;4.80;99.90;;;;;;5053777;28;20215;-60
2021/11/17 06:24:11;;;;;;;57.27;21.10;;;4.80;99.90;;;;;;5051358;28;20228;-59
2021/11/17 06:26:41;;;;;;;60.93;21.17;;;4.80;99.90;;;;;;5051221;28;20215;-57
2021/11/17 06:29:14;;;;;;;57.87;20.77;;;4.70;99.90;;;;;;5051707;28;20222;-58
2021/11/17 06:31:42;;;;;;;48.93;18.80;;;4.80;99.90;;;;;;5051444;28;20218;-57
2021/11/17 06:34:26;;;;;;;53.70;19.30;;;4.80;99.90;;;;;;5045093;28;20225;-63
2021/11/17 06:36:53;;;;;;;51.93;20.00;;;4.80;99.90;;;;;;5041674;28;20244;-62
2021/11/17 06:39:21;;;;;;;58.53;20.67;;;4.80;99.90;;;;;;5031236;28;20278;-58
2021/11/17 06:41:48;;;;;;;54.00;20.27;;;4.80;99.90;;;;;;5032585;28;20208;-62
2021/11/17 06:44:16;;;;;;;47.63;18.70;;;4.80;99.90;;;;;;5035125;28;20226;-61
2021/11/17 06:46:42;;;;;;;48.70;20.10;;;4.90;99.90;;;;;;5034700;28;20212;-62
2021/11/17 06:49:09;;;;;;;56.63;20.37;;;4.90;99.90;;;;;;5035009;28;20211;-58
2021/11/17 06:51:36;;;;;;;48.73;19.13;;;4.90;99.90;;;;;;5034979;28;20266;-63
2021/11/17 06:54:02;;;;;;;47.50;20.03;;;4.90;99.90;;;;;;5034733;28;20236;-65
2021/11/17 06:56:29;;;;;;;52.33;21.47;;;4.90;99.90;;;;;;5034093;28;20217;-65
2021/11/17 06:58:56;;;;;;;48.07;19.30;;;5.00;99.90;;;;;;5034900;28;20229;-63
2021/11/17 07:01:24;;;;;;;55.47;20.70;;;5.00;99.90;;;;;;5034550;28;20248;-64
2021/11/17 07:03:51;;;;;;;49.03;19.13;;;5.00;99.90;;;;;;5034282;28;20318;-63
2021/11/17 07:06:18;;;;;;;49.03;19.57;;;5.00;99.90;;;;;;5034122;28;20275;-65
2021/11/17 07:08:44;;;;;;;48.50;18.80;;;5.00;98.00;;;;;;5034575;28;20259;-64
2021/11/17 07:11:11;;;;;;;55.07;20.47;;;5.00;96.60;;;;;;5034390;28;20207;-65
2021/11/17 07:13:38;;;;;;;47.67;19.70;;;5.10;95.90;;;;;;5034478;28;20258;-64
2021/11/17 07:16:06;;;;;;;54.33;21.03;;;5.10;94.70;;;;;;5043077;28;20261;-63
2021/11/17 07:18:34;;;;;;;51.07;20.30;;;5.10;77.70;;;;;;5054132;28;20642;-65
2021/11/17 07:21:01;;;;;;;50.07;20.80;;;5.10;75.40;;;;;;5054191;28;20205;-65
2021/11/17 07:23:29;;;;;;;49.77;20.00;;;5.10;72.50;;;;;;5053646;28;20201;-65
2021/11/17 07:25:56;;;;;;;51.93;21.87;;;5.10;60.10;;;;;;5053483;28;20212;-64
2021/11/17 07:28:22;;;;;;;45.97;18.87;;;5.20;54.10;;;;;;5053784;28;20839;-65
2021/11/17 07:30:49;;;;;;;44.13;19.10;;;5.20;57.80;;;;;;5053787;28;20220;-64
2021/11/17 07:33:16;;;;;;;46.90;20.43;;;5.20;50.40;;;;;;5053550;28;20211;-63
2021/11/17 07:35:46;;;;;;;47.33;19.37;;;5.30;32.70;;;;;;5053422;28;20673;-64
2021/11/17 07:38:16;;;;;;;47.60;20.10;;;5.30;6.30;;;;;;5053828;28;20233;-67
2021/11/17 07:40:45;;;;;;;48.00;20.60;;;5.40;1.00;;;;;;5051551;28;20592;-68
2021/11/17 07:43:12;;;;;;;43.63;18.20;;;5.40;1.00;;;;;;5033807;28;20301;-68
2021/11/17 07:45:40;;;;;;;37.40;17.17;;;5.40;1.00;;;;;;5033061;28;20216;-68
2021/11/17 07:48:08;;;;;;;40.90;19.63;;;5.50;1.00;;;;;;5033791;28;20209;-66
2021/11/17 07:50:34;;;;;;;41.80;19.10;;;5.60;1.00;;;;;;5033876;28;20216;-66
2021/11/17 07:53:03;;;;;;;41.33;18.63;;;5.70;1.00;;;;;;5032860;28;20202;-66
2021/11/17 07:55:30;;;;;;;38.40;18.67;;;5.70;1.00;;;;;;5033228;28;20234;-65
2021/11/17 07:57:57;;;;;;;34.60;16.97;;;5.70;1.00;;;;;;5033643;28;20252;-65
2021/11/17 08:00:26;;;;;;;36.33;18.73;;;5.80;1.00;;;;;;5033823;28;20217;-66
2021/11/17 08:02:54;;;;;;;36.77;19.23;;;5.90;1.00;;;;;;5033635;28;20256;-63
2021/11/17 08:05:22;;;;;;;35.27;17.67;;;6.00;1.00;;;;;;5033000;28;20605;-64
2021/11/17 08:07:49;;;;;;;36.97;18.70;;;6.00;99.90;;;;;;5033619;28;20202;-63
2021/11/17 08:10:20;;;;;;;36.67;18.13;;;6.00;99.90;;;;;;5033459;28;20250;-65
2021/11/17 08:12:47;;;;;;;39.40;20.00;;;6.10;99.90;;;;;;5033847;28;20584;-66
2021/11/17 08:15:14;;;;;;;38.20;19.03;;;6.20;99.90;;;;;;5032856;28;20222;-65
2021/11/17 08:17:42;;;;;;;37.13;19.67;;;6.30;99.90;;;;;;5033624;28;20629;-65
2021/11/17 08:20:12;;;;;;;39.77;20.43;;;6.30;99.90;;;;;;5033484;28;20620;-67
2021/11/17 08:22:40;;;;;;;35.17;20.70;;;6.40;99.90;;;;;;5033256;28;20301;-65
2021/11/17 08:25:07;;;;;;;37.93;20.13;;;6.50;99.90;;;;;;5032193;28;20238;-63
2021/11/17 08:27:35;;;;;;;38.97;20.23;;;6.40;99.90;;;;;;5044361;28;20698;-65
2021/11/17 08:30:02;;;;;;;45.50;21.27;;;6.40;99.90;;;;;;5053227;28;20275;-65
2021/11/17 08:32:29;;;;;;;39.67;19.43;;;6.40;99.90;;;;;;5052759;28;20281;-64
2021/11/17 08:34:56;;;;;;;34.40;19.20;;;6.50;99.90;;;;;;5052188;28;20639;-65
2021/11/17 08:37:22;;;;;;;38.03;21.13;;;6.50;99.90;;;;;;5051891;28;20209;-65
2021/11/17 08:39:50;;;;;;;38.77;20.33;;;6.40;99.90;;;;;;5052946;28;20739;-65
2021/11/17 08:42:18;;;;;;;35.07;19.13;;;6.40;99.90;;;;;;5052823;28;20210;-66
2021/11/17 08:47:21;;;;;;;36.67;19.23;;;6.40;99.90;;;;;;615217;26;20531;-66
2021/11/17 08:49:48;;;;;;;35.40;17.70;;;6.50;99.90;;;;;;5071941;28;20213;-65
2021/11/17 08:52:15;;;;;;;29.60;15.47;;;6.40;99.90;;;;;;5072249;28;20689;-65
2021/11/17 08:54:42;;;;;;;36.13;17.80;;;6.40;99.90;;;;;;5071780;28;20225;-63
2021/11/17 08:57:09;;;;;;;30.03;17.43;;;6.50;99.90;;;;;;5056686;28;20209;-62
2021/11/17 08:59:36;;;;;;;31.60;17.77;;;6.40;99.90;;;;;;5052283;28;20222;-66
2021/11/17 09:02:04;;;;;;;29.40;16.37;;;6.50;99.90;;;;;;5052126;28;20263;-67
2021/11/17 09:04:32;;;;;;;29.13;15.93;;;6.50;99.90;;;;;;5051749;28;20229;-67
2021/11/17 09:06:59;;;;;;;27.53;16.10;;;6.60;99.90;;;;;;5051950;28;20213;-65
2021/11/17 09:09:26;;;;;;;26.90;15.23;;;6.60;99.90;;;;;;5052241;28;20247;-65
2021/11/17 09:11:53;;;;;;;30.87;15.23;;;6.70;99.90;;;;;;5052091;28;20201;-65
2021/11/17 09:14:20;;;;;;;23.60;14.87;;;6.70;99.90;;;;;;5051743;28;20283;-66
2021/11/17 09:16:47;;;;;;;26.47;14.37;;;6.70;94.20;;;;;;5051312;28;20285;-65
2021/11/17 09:19:14;;;;;;;24.87;14.90;;;6.80;85.50;;;;;;5051345;28;20271;-64
2021/11/17 09:21:45;;;;;;;27.00;14.90;;;6.80;59.40;;;;;;5052274;28;20598;-65
2021/11/17 09:24:15;;;;;;;27.50;14.67;;;6.80;54.80;;;;;;5051569;28;20221;-66
2021/11/17 09:26:46;;;;;;;25.70;14.80;;;6.70;43.30;;;;;;5051237;28;20289;-66
2021/11/17 09:29:13;;;;;;;22.30;13.63;;;6.70;44.80;;;;;;5051530;28;20598;-65
2021/11/17 09:31:41;;;;;;;26.63;15.07;;;6.80;40.10;;;;;;5051526;28;20206;-66
2021/11/17 09:34:09;;;;;;;26.13;14.50;;;6.70;37.00;;;;;;5061574;28;20599;-66
2021/11/17 09:36:38;;;;;;;26.77;14.87;;;6.70;36.50;;;;;;5069499;28;20208;-66
2021/11/17 09:39:08;;;;;;;28.07;14.87;;;6.70;37.40;;;;;;5071531;28;20865;-66
2021/11/17 09:41:39;;;;;;;24.07;13.33;;;6.70;35.20;;;;;;5070827;28;20213;-66
2021/11/17 09:44:10;;;;;;;24.40;12.50;;;6.70;29.50;;;;;;5071336;28;20274;-66
2021/11/17 09:46:39;;;;;;;26.40;13.80;;;6.80;31.40;;;;;;5070640;28;20205;-65
2021/11/17 09:49:11;;;;;;;27.60;14.13;;;6.80;26.80;;;;;;5071082;28;20597;-65
2021/11/17 09:51:43;;;;;;;27.20;14.53;;;6.90;20.20;;;;;;5071386;28;20676;-66
2021/11/17 09:54:16;;;;;;;25.23;13.10;;;6.90;14.50;;;;;;5070968;28;20235;-67
2021/11/17 09:56:45;;;;;;;26.10;13.77;;;6.90;12.70;;;;;;5070741;28;20215;-63
2021/11/17 09:59:21;;;;;;;26.23;13.57;;;6.90;8.20;;;;;;5071179;28;20236;-65
2021/11/17 10:01:52;;;;;;;24.40;13.73;;;6.90;10.10;;;;;;5071343;28;20235;-65
2021/11/17 10:04:23;;;;;;;23.60;14.00;;;7.00;4.70;;;;;;5071072;28;20232;-65
2021/11/17 10:09:56;;;;;;;22.97;13.17;;;7.00;2.70;;;;;;5070792;28;20637;-64
2021/11/17 10:25:58;;;;;;;22.53;12.77;;;7.00;2.50;;;;;;5087999;28;20603;-59
2021/11/17 10:28:32;;;;;;;25.30;14.40;;;7.00;1.00;;;;;;5088681;28;20204;-61
2021/11/17 10:31:10;;;;;;;24.10;12.87;;;7.00;1.00;;;;;;5088712;28;20208;-64
2021/11/17 10:33:56;;;;;;;23.93;14.00;;;7.00;2.60;;;;;;5088326;28;20254;-61
2021/11/17 10:36:26;;;;;;;25.27;13.93;;;7.20;2.80;;;;;;5087545;28;20221;-60
2021/11/17 10:38:58;;;;;;;23.97;13.37;;;7.20;1.00;;;;;;5088331;28;20205;-60
2021/11/17 10:41:28;;;;;;;24.43;14.07;;;7.20;1.00;;;;;;5088435;28;20212;-60
2021/11/17 10:43:58;;;;;;;29.03;14.27;;;7.20;1.00;;;;;;5088429;28;20282;-60
2021/11/17 10:46:28;;;;;;;31.57;14.57;;;7.20;1.00;;;;;;5087674;28;20239;-62
2021/11/17 10:49:00;;;;;;;26.53;13.83;;;7.20;1.00;;;;;;5088206;28;20208;-64
2021/11/17 10:51:32;;;;;;;24.77;13.60;;;7.20;1.00;;;;;;5088319;28;20230;-63
2021/11/17 10:54:01;;;;;;;25.40;13.10;;;7.20;1.00;;;;;;5088272;28;20239;-63
2021/11/17 10:56:30;;;;;;;24.67;14.30;;;7.20;3.20;;;;;;5087821;28;20208;-64
2021/11/17 10:59:11;;;;;;;27.13;14.47;;;7.20;2.80;;;;;;5088541;28;20697;-62
2021/11/17 11:01:40;;;;;;;29.23;15.27;;;7.30;3.10;;;;;;5069200;28;20208;-63
2021/11/17 11:04:15;;;;;;;25.00;13.70;;;7.30;2.90;;;;;;5068838;28;20247;-60
2021/11/17 11:06:46;;;;;;;27.37;14.93;;;7.20;14.00;;;;;;5067339;28;20682;-64
2021/11/17 11:09:17;;;;;;;29.03;14.37;;;7.20;58.90;;;;;;5067723;28;20216;-64
2021/11/17 11:11:49;;;;;;;26.73;13.93;;;7.30;99.90;;;;;;5067726;28;20205;-65
2021/11/17 11:14:39;;;;;;;32.13;15.47;;;7.30;99.90;;;;;;5177301;23;20241;-66
2021/11/17 11:17:26;;;;;;;31.60;15.50;;;7.20;99.90;;;;;;5067458;28;20201;-64
2021/11/17 11:20:30;;;;;;;28.40;14.57;;;7.20;99.90;;;;;;5047655;28;20209;-64
2021/11/17 11:23:25;;;;;;;31.90;16.53;;;7.30;99.90;;;;;;5047858;28;20206;-61
2021/11/17 11:26:20;;;;;;;32.23;16.07;;;7.30;99.90;;;;;;5019234;28;20360;-62
2021/11/17 11:29:07;;;;;;;32.70;15.67;;;7.40;99.90;;;;;;5014614;28;20230;-63
2021/11/17 11:31:42;;;;;;;33.23;16.33;;;7.50;99.90;;;;;;5013167;28;20592;-60
2021/11/17 11:34:37;;;;;;;32.87;16.60;;;7.50;99.90;;;;;;5014067;28;20235;-63
2021/11/17 11:37:06;;;;;;;30.77;15.57;;;7.40;99.90;;;;;;5013867;28;20733;-63
2021/11/17 11:39:45;;;;;;;35.07;16.97;;;7.50;99.90;;;;;;5014113;28;20846;-64
2021/11/17 11:42:39;;;;;;;34.10;16.63;;;7.50;99.90;;;;;;5014372;28;20298;-64
2021/11/17 11:45:39;;;;;;;44.97;18.80;;;7.50;99.90;;;;;;5012923;28;20266;-63
2021/11/17 11:48:08;;;;;;;36.40;16.87;;;7.50;99.90;;;;;;5013992;28;20674;-63
2021/11/17 11:50:59;;;;;;;38.17;18.80;;;7.60;99.90;;;;;;5013728;28;20212;-62
2021/11/17 11:54:06;;;;;;;36.30;18.20;;;7.60;99.90;;;;;;5013392;28;20577;-63
2021/11/17 11:56:43;;;;;;;44.93;19.77;;;7.60;99.90;;;;;;5013102;28;20212;-62
2021/11/17 11:59:13;;;;;;;41.67;19.90;;;7.60;1.00;;;;;;5013468;28;20702;-61
2021/11/17 12:01:42;;;;;;;48.80;20.20;;;7.70;1.00;;;;;;5013391;28;20204;-63
2021/11/17 12:04:14;;;;;;;39.93;19.33;;;7.70;1.00;;;;;;5013581;28;20227;-63
2021/11/17 12:06:46;;;;;;;41.40;19.90;;;7.70;1.00;;;;;;5013186;28;20211;-62
2021/11/17 12:09:19;;;;;;;44.03;19.87;;;7.70;1.00;;;;;;5014176;28;20208;-61
2021/11/17 12:11:49;;;;;;;49.07;20.27;;;7.60;1.00;;;;;;5013711;28;20785;-61
2021/11/17 12:14:29;;;;;;;46.10;20.80;;;7.60;1.00;;;;;;5012877;28;20236;-61
2021/11/17 12:16:58;;;;;;;44.13;18.10;;;7.60;1.00;;;;;;5019763;28;20684;-59
2021/11/17 12:19:39;;;;;;;53.33;22.23;;;7.50;1.00;;;;;;5032965;28;20207;-62
2021/11/17 12:22:11;;;;;;;55.53;20.60;;;7.50;1.00;;;;;;5033023;28;20216;-62
2021/11/17 12:24:40;;;;;;;52.53;21.17;;;7.50;1.00;;;;;;5032474;28;20309;-62
2021/11/17 12:27:09;;;;;;;54.90;22.60;;;7.40;11.50;;;;;;5033068;28;20268;-62
2021/11/17 12:29:55;;;;;;;50.20;19.57;;;7.40;26.50;;;;;;5032898;28;20638;-60
2021/11/17 12:32:28;;;;;;;51.80;21.87;;;7.50;46.80;;;;;;5032894;28;20217;-63
2021/11/17 12:35:00;;;;;;;51.93;22.07;;;7.50;47.40;;;;;;5032237;28;20231;-64
2021/11/17 12:37:30;;;;;;;50.17;21.30;;;7.50;46.10;;;;;;5031826;28;20225;-63
2021/11/17 12:40:01;;;;;;;46.53;20.37;;;7.50;58.30;;;;;;5033051;28;20206;-62
2021/11/17 12:42:32;;;;;;;51.27;20.73;;;7.60;58.00;;;;;;5031594;28;20210;-62
2021/11/17 12:45:00;;;;;;;46.07;21.70;;;7.50;37.70;;;;;;5032007;28;20716;-61
2021/11/17 12:47:31;;;;;;;49.33;20.93;;;7.50;48.60;;;;;;5032250;28;20214;-62
2021/11/17 12:50:04;;;;;;;47.17;21.17;;;7.50;41.10;;;;;;5032946;28;20211;-62
2021/11/17 12:52:35;;;;;;;47.00;20.67;;;7.50;32.60;;;;;;5032723;28;20242;-63
2021/11/17 12:55:06;;;;;;;51.13;20.63;;;7.50;49.50;;;;;;5031896;28;20235;-63
2021/11/17 12:57:51;;;;;;;44.93;20.20;;;7.60;75.80;;;;;;5032721;28;20214;-63
2021/11/17 13:00:41;;;;;;;52.73;20.57;;;7.50;55.80;;;;;;5032514;28;20264;-62
2021/11/17 13:03:22;;;;;;;52.60;21.13;;;7.60;58.50;;;;;;5032648;28;20208;-60
2021/11/17 13:06:03;;;;;;;49.80;22.10;;;7.60;86.30;;;;;;5031786;28;20565;-63
2021/11/17 13:08:34;;;;;;;50.57;21.73;;;7.60;71.30;;;;;;5031952;28;20207;-63
2021/11/17 13:11:19;;;;;;;44.93;20.40;;;7.60;49.20;;;;;;5032407;28;20210;-62
2021/11/17 13:13:50;;;;;;;49.07;21.57;;;7.70;64.30;;;;;;5031978;28;20226;-64
2021/11/17 13:16:23;;;;;;;61.90;25.13;;;7.60;61.90;;;;;;5031321;28;20213;-65
2021/11/17 13:18:55;;;;;;;53.30;22.67;;;7.50;45.30;;;;;;5032298;28;20744;-64
2021/11/17 13:21:31;;;;;;;49.63;22.93;;;7.60;95.10;;;;;;5032330;28;20211;-64
2021/11/17 13:24:09;;;;;;;51.43;22.13;;;7.50;99.90;;;;;;5031956;28;20241;-62
2021/11/17 13:26:38;;;;;;;50.90;22.50;;;7.50;99.90;;;;;;5031434;28;20210;-64
2021/11/17 13:29:24;;;;;;;53.00;22.67;;;7.50;99.90;;;;;;5031634;28;20298;-64
2021/11/17 13:31:52;;;;;;;44.50;20.67;;;7.50;99.90;;;;;;5032063;28;20305;-62
2021/11/17 13:34:35;;;;;;;45.87;21.33;;;7.60;99.90;;;;;;5031554;28;20235;-63
2021/11/17 13:37:23;;;;;;;48.50;20.60;;;7.70;99.90;;;;;;5031523;28;20256;-63
2021/11/17 13:39:54;;;;;;;47.87;21.17;;;7.70;99.90;;;;;;5018707;28;21016;-63
2021/11/17 13:42:21;;;;;;;48.60;21.40;;;7.70;99.90;;;;;;5011964;28;20214;-62
2021/11/17 13:44:48;;;;;;;46.10;20.67;;;7.80;99.90;;;;;;5011313;28;20224;-63
2021/11/17 13:47:17;;;;;;;43.23;18.40;;;7.80;99.90;;;;;;5011691;28;20216;-62
2021/11/17 13:49:49;;;;;;;49.63;21.43;;;7.80;99.90;;;;;;5011991;28;20217;-65
2021/11/17 13:52:18;;;;;;;44.60;20.87;;;7.70;99.90;;;;;;5011717;28;20295;-62
2021/11/17 13:54:45;;;;;;;45.13;20.87;;;7.70;99.90;;;;;;5011263;28;20228;-62
2021/11/17 13:57:14;;;;;;;51.33;20.87;;;7.80;99.90;;;;;;5017113;28;20272;-62
2021/11/17 13:59:40;;;;;;;48.80;20.00;;;7.80;99.90;;;;;;5031466;28;20245;-63
2021/11/17 14:02:09;;;;;;;48.93;20.87;;;7.80;99.90;;;;;;5031196;28;20210;-63
2021/11/17 14:04:36;;;;;;;41.13;19.13;;;7.80;99.90;;;;;;5030511;28;20229;-62
2021/11/17 14:07:06;;;;;;;49.10;20.30;;;7.80;99.90;;;;;;5031476;28;20216;-63
2021/11/17 14:09:32;;;;;;;49.67;20.23;;;7.80;99.90;;;;;;5031270;28;20209;-62
2021/11/17 14:12:00;;;;;;;47.37;20.30;;;7.80;99.90;;;;;;5031161;28;20208;-62
2021/11/17 14:14:28;;;;;;;56.17;21.17;;;7.90;99.90;;;;;;5030981;28;20231;-62
2021/11/17 14:16:55;;;;;;;56.23;20.40;;;8.00;99.90;;;;;;5030823;28;20357;-63
2021/11/17 14:19:21;;;;;;;51.53;22.60;;;8.00;99.90;;;;;;5031001;28;20899;-64
2021/11/17 14:21:48;;;;;;;51.77;22.97;;;8.00;99.90;;;;;;5031244;28;20733;-61
2021/11/17 14:24:17;;;;;;;60.60;22.43;;;8.00;99.90;;;;;;5031851;28;20232;-63
2021/11/17 14:26:46;;;;;;;59.53;23.53;;;8.20;99.90;;;;;;5030728;28;20213;-62
2021/11/17 14:29:16;;;;;;;56.93;23.53;;;8.20;99.90;;;;;;5031107;28;20262;-59
2021/11/17 14:31:46;;;;;;;66.03;24.97;;;8.20;99.90;;;;;;5030881;28;20216;-62
2021/11/17 14:34:13;;;;;;;64.60;23.63;;;8.20;99.90;;;;;;5030948;28;20227;-63
2021/11/17 14:36:51;;;;;;;71.67;26.63;;;8.20;99.90;;;;;;5030385;28;20707;-62
2021/11/17 14:39:21;;;;;;;74.53;25.27;;;8.10;99.90;;;;;;5031158;28;20203;-63
2021/11/17 14:41:49;;;;;;;76.70;26.30;;;8.20;99.90;;;;;;5031133;28;20209;-63
2021/11/17 14:44:16;;;;;;;84.57;27.43;;;8.20;99.90;;;;;;5030756;28;20228;-64
2021/11/17 14:46:43;;;;;;;78.63;27.17;;;8.20;99.90;;;;;;5030681;28;20296;-64
2021/11/17 14:49:11;;;;;;;74.17;27.83;;;8.10;99.90;;;;;;5030935;28;20215;-63
2021/11/17 14:51:39;;;;;;;78.90;27.60;;;8.20;99.90;;;;;;5030954;28;20244;-65
2021/11/17 14:54:05;;;;;;;83.40;27.80;;;8.20;99.90;;;;;;5030744;28;20255;-63
2021/11/17 14:56:33;;;;;;;76.73;26.97;;;8.20;99.90;;;;;;5011607;28;20605;-61
2021/11/17 14:59:00;;;;;;;109.57;30.57;;;8.20;99.90;;;;;;5011145;28;20213;-64
2021/11/17 15:01:31;;;;;;;96.97;29.07;;;8.20;99.90;;;;;;5013555;28;20653;-61
2021/11/17 15:03:59;;;;;;;104.17;28.63;;;8.20;99.90;;;;;;5015116;28;20233;-61
2021/11/17 15:06:26;;;;;;;104.80;29.57;;;8.20;99.90;;;;;;5014345;28;20329;-62
2021/11/17 15:08:59;;;;;;;88.27;29.47;;;8.20;99.90;;;;;;5015105;28;20267;-64
2021/11/17 15:11:27;;;;;;;94.10;30.07;;;8.30;99.90;;;;;;5014946;28;20217;-62
2021/11/17 15:13:55;;;;;;;112.20;31.93;;;8.20;99.90;;;;;;5014703;28;20268;-62
2021/11/17 15:16:23;;;;;;;104.80;31.63;;;8.20;99.90;;;;;;5014153;28;20229;-63
2021/11/17 15:18:50;;;;;;;92.87;31.10;;;8.20;99.90;;;;;;5014704;28;20216;-64
2021/11/17 15:21:20;;;;;;;100.97;30.50;;;8.20;99.90;;;;;;5014675;28;20215;-61
2021/11/17 15:23:47;;;;;;;107.50;32.93;;;8.30;99.90;;;;;;5014375;28;20238;-66
2021/11/17 15:26:15;;;;;;;110.33;32.97;;;8.20;99.90;;;;;;5014216;28;20635;-64
2021/11/17 15:28:45;;;;;;;112.60;33.70;;;8.30;99.90;;;;;;5014663;28;20204;-60
2021/11/17 15:31:16;;;;;;;111.73;33.67;;;8.30;99.90;;;;;;5014475;28;20207;-62
2021/11/17 15:33:44;;;;;;;127.63;35.27;;;8.20;99.90;;;;;;5014376;28;20607;-62
2021/11/17 15:36:13;;;;;;;128.60;35.03;;;8.20;99.90;;;;;;5015089;28;20229;-62
2021/11/17 15:38:41;;;;;;;116.57;34.50;;;8.20;99.90;;;;;;5028332;28;20208;-66
2021/11/17 15:41:13;;;;;;;122.90;35.70;;;8.20;99.90;;;;;;5022397;28;20616;-62
2021/11/17 15:43:40;;;;;;;103.63;33.50;;;8.20;99.90;;;;;;5034273;28;20232;-61
2021/11/17 15:46:07;;;;;;;130.60;35.47;;;8.30;99.90;;;;;;5033921;28;20215;-62
2021/11/17 15:48:39;;;;;;;112.27;34.93;;;8.20;99.90;;;;;;5034160;28;20206;-67
2021/11/17 15:51:09;;;;;;;132.50;35.77;;;8.30;99.90;;;;;;5034171;28;20728;-67
2021/11/17 15:53:36;;;;;;;115.67;35.83;;;8.40;99.90;;;;;;5034122;28;20236;-67
2021/11/17 15:56:05;;;;;;;126.53;36.97;;;8.50;99.90;;;;;;5033699;28;20233;-67
2021/11/17 15:58:31;;;;;;;127.20;38.43;;;8.60;99.90;;;;;;5034413;28;20311;-68
2021/11/17 16:00:58;;;;;;;123.07;38.20;;;8.50;99.90;;;;;;5033869;28;20233;-66
2021/11/17 16:03:26;;;;;;;123.73;38.47;;;8.50;99.90;;;;;;5033688;28;20259;-66